sensor_id;sensor_type;location;lat;lon;timestamp;pressure;altitude;pressure_sealevel;temperature;humidity
17521;BME280;8878;-33.370;-70.552;2022-07-29T00:02:27;92446.06;;;9.06;100.00
17521;BME280;8878;-33.370;-70.552;2022-07-29T00:04:58;92448.25;;;9.14;100.00
17521;BME280;8878;-33.370;-70.552;2022-07-29T00:07:28;92449.53;;;9.11;100.00
17521;BME280;8878;-33.370;-70.552;2022-07-29T00:09:58;92448.91;;;8.99;100.00
17521;BME280;8878;-33.370;-70.552;2022-07-29T00:12:27;92447.75;;;8.90;100.00
17521;BME280;8878;-33.370;-70.552;2022-07-29T00:14:57;92450.19;;;8.96;100.00
17521;BME280;8878;-33.370;-70.552;2022-07-29T00:17:28;92449.47;;;9.01;100.00
17521;BME280;8878;-33.370;-70.552;2022-07-29T00:19:58;92445.00;;;9.01;100.00
17521;BME280;8878;-33.370;-70.552;2022-07-29T00:22:27;92443.19;;;9.07;100.00
17521;BME280;8878;-33.370;-70.552;2022-07-29T00:24:57;92436.59;;;9.04;100.00
17521;BME280;8878;-33.370;-70.552;2022-07-29T00:27:26;92442.28;;;8.96;100.00
17521;BME280;8878;-33.370;-70.552;2022-07-29T00:29:56;92438.78;;;8.86;100.00
17521;BME280;8878;-33.370;-70.552;2022-07-29T00:32:27;92437.03;;;8.70;100.00
17521;BME280;8878;-33.370;-70.552;2022-07-29T00:34:56;92442.00;;;8.66;100.00
17521;BME280;8878;-33.370;-70.552;2022-07-29T00:37:42;92423.50;;;8.61;100.00
17521;BME280;8878;-33.370;-70.552;2022-07-29T00:40:12;92421.06;;;8.54;100.00
17521;BME280;8878;-33.370;-70.552;2022-07-29T00:42:45;92418.59;;;8.43;100.00
17521;BME280;8878;-33.370;-70.552;2022-07-29T00:45:16;92407.28;;;8.42;100.00
17521;BME280;8878;-33.370;-70.552;2022-07-29T00:47:47;92400.59;;;8.35;100.00
17521;BME280;8878;-33.370;-70.552;2022-07-29T00:50:18;92404.63;;;8.42;100.00
17521;BME280;8878;-33.370;-70.552;2022-07-29T00:52:48;92403.56;;;8.38;100.00
17521;BME280;8878;-33.370;-70.552;2022-07-29T00:55:18;92394.59;;;8.39;100.00
17521;BME280;8878;-33.370;-70.552;2022-07-29T00:57:47;92388.25;;;8.35;100.00
17521;BME280;8878;-33.370;-70.552;2022-07-29T01:00:20;92396.78;;;8.25;100.00
17521;BME280;8878;-33.370;-70.552;2022-07-29T01:02:52;92400.41;;;8.19;100.00
17521;BME280;8878;-33.370;-70.552;2022-07-29T01:05:23;92395.84;;;8.10;100.00
17521;BME280;8878;-33.370;-70.552;2022-07-29T01:07:53;92391.22;;;8.00;100.00
17521;BME280;8878;-33.370;-70.552;2022-07-29T01:10:24;92390.63;;;7.93;100.00
17521;BME280;8878;-33.370;-70.552;2022-07-29T01:12:55;92378.84;;;7.96;100.00
17521;BME280;8878;-33.370;-70.552;2022-07-29T01:15:26;92386.16;;;7.94;100.00
17521;BME280;8878;-33.370;-70.552;2022-07-29T01:18:03;92388.59;;;8.00;100.00
17521;BME280;8878;-33.370;-70.552;2022-07-29T01:20:54;92383.41;;;8.05;100.00
17521;BME280;8878;-33.370;-70.552;2022-07-29T01:23:53;92382.44;;;8.11;100.00
17521;BME280;8878;-33.370;-70.552;2022-07-29T01:26:39;92391.84;;;8.07;100.00
17521;BME280;8878;-33.370;-70.552;2022-07-29T01:29:18;92387.88;;;8.05;100.00
17521;BME280;8878;-33.370;-70.552;2022-07-29T01:31:56;92393.63;;;8.02;100.00
17521;BME280;8878;-33.370;-70.552;2022-07-29T01:34:34;92389.41;;;8.01;100.00
17521;BME280;8878;-33.370;-70.552;2022-07-29T01:37:11;92387.34;;;8.03;100.00
17521;BME280;8878;-33.370;-70.552;2022-07-29T01:39:47;92395.56;;;7.90;100.00
17521;BME280;8878;-33.370;-70.552;2022-07-29T01:42:25;92395.56;;;7.90;100.00
17521;BME280;8878;-33.370;-70.552;2022-07-29T01:45:02;92386.44;;;7.97;100.00
17521;BME280;8878;-33.370;-70.552;2022-07-29T01:47:40;92385.97;;;8.00;100.00
17521;BME280;8878;-33.370;-70.552;2022-07-29T01:50:14;92376.81;;;8.03;100.00
17521;BME280;8878;-33.370;-70.552;2022-07-29T01:52:52;92384.16;;;8.01;100.00
17521;BME280;8878;-33.370;-70.552;2022-07-29T01:55:27;92378.38;;;8.04;100.00
17521;BME280;8878;-33.370;-70.552;2022-07-29T01:57:58;92375.22;;;8.02;100.00
17521;BME280;8878;-33.370;-70.552;2022-07-29T02:00:32;92388.41;;;7.85;100.00
17521;BME280;8878;-33.370;-70.552;2022-07-29T02:03:07;92375.94;;;7.75;100.00
17521;BME280;8878;-33.370;-70.552;2022-07-29T02:05:38;92378.06;;;7.78;100.00
17521;BME280;8878;-33.370;-70.552;2022-07-29T02:08:10;92372.06;;;7.61;100.00
17521;BME280;8878;-33.370;-70.552;2022-07-29T02:10:43;92370.91;;;7.52;100.00
17521;BME280;8878;-33.370;-70.552;2022-07-29T02:13:14;92380.03;;;7.66;100.00
17521;BME280;8878;-33.370;-70.552;2022-07-29T02:15:46;92382.09;;;7.64;100.00
17521;BME280;8878;-33.370;-70.552;2022-07-29T02:18:18;92376.03;;;7.64;100.00
17521;BME280;8878;-33.370;-70.552;2022-07-29T02:20:52;92371.25;;;7.61;100.00
17521;BME280;8878;-33.370;-70.552;2022-07-29T02:23:23;92372.81;;;7.78;100.00
17521;BME280;8878;-33.370;-70.552;2022-07-29T02:25:55;92377.28;;;7.78;100.00
17521;BME280;8878;-33.370;-70.552;2022-07-29T02:28:26;92367.44;;;7.68;100.00
17521;BME280;8878;-33.370;-70.552;2022-07-29T02:31:00;92361.34;;;7.46;100.00
17521;BME280;8878;-33.370;-70.552;2022-07-29T02:33:31;92370.69;;;7.37;100.00
17521;BME280;8878;-33.370;-70.552;2022-07-29T02:36:01;92356.81;;;7.41;100.00
17521;BME280;8878;-33.370;-70.552;2022-07-29T02:38:32;92343.00;;;7.29;100.00
17521;BME280;8878;-33.370;-70.552;2022-07-29T02:41:27;92351.91;;;7.45;100.00
17521;BME280;8878;-33.370;-70.552;2022-07-29T02:43:58;92347.84;;;7.37;100.00
17521;BME280;8878;-33.370;-70.552;2022-07-29T02:46:33;92339.63;;;7.51;100.00
17521;BME280;8878;-33.370;-70.552;2022-07-29T02:49:08;92360.53;;;7.62;100.00
17521;BME280;8878;-33.370;-70.552;2022-07-29T02:51:43;92352.13;;;7.43;99.61
17521;BME280;8878;-33.370;-70.552;2022-07-29T02:54:21;92341.69;;;7.48;99.35
17521;BME280;8878;-33.370;-70.552;2022-07-29T02:56:52;92341.44;;;7.67;99.02
17521;BME280;8878;-33.370;-70.552;2022-07-29T02:59:26;92344.53;;;7.64;96.52
17521;BME280;8878;-33.370;-70.552;2022-07-29T03:01:59;92328.16;;;7.57;97.32
17521;BME280;8878;-33.370;-70.552;2022-07-29T03:04:29;92328.47;;;7.60;99.68
17521;BME280;8878;-33.370;-70.552;2022-07-29T03:07:01;92332.94;;;7.60;98.92
17521;BME280;8878;-33.370;-70.552;2022-07-29T03:09:31;92312.09;;;7.53;99.40
17521;BME280;8878;-33.370;-70.552;2022-07-29T03:12:01;92318.00;;;7.43;96.89
17521;BME280;8878;-33.370;-70.552;2022-07-29T03:14:31;92325.38;;;7.46;95.00
17521;BME280;8878;-33.370;-70.552;2022-07-29T03:17:03;92325.81;;;7.38;93.16
17521;BME280;8878;-33.370;-70.552;2022-07-29T03:19:32;92312.03;;;7.48;92.36
17521;BME280;8878;-33.370;-70.552;2022-07-29T03:22:03;92322.25;;;7.66;92.45
17521;BME280;8878;-33.370;-70.552;2022-07-29T03:24:34;92331.09;;;7.60;91.43
17521;BME280;8878;-33.370;-70.552;2022-07-29T03:27:04;92309.72;;;7.52;92.03
17521;BME280;8878;-33.370;-70.552;2022-07-29T03:29:34;92310.94;;;7.44;90.77
17521;BME280;8878;-33.370;-70.552;2022-07-29T03:32:06;92314.88;;;7.46;93.42
17521;BME280;8878;-33.370;-70.552;2022-07-29T03:34:36;92297.81;;;7.44;93.40
17521;BME280;8878;-33.370;-70.552;2022-07-29T03:37:06;92310.84;;;7.39;93.71
17521;BME280;8878;-33.370;-70.552;2022-07-29T03:39:39;92305.47;;;7.29;95.00
17521;BME280;8878;-33.370;-70.552;2022-07-29T03:42:11;92294.00;;;7.35;94.34
17521;BME280;8878;-33.370;-70.552;2022-07-29T03:44:44;92289.69;;;7.45;93.28
17521;BME280;8878;-33.370;-70.552;2022-07-29T03:47:19;92298.53;;;7.39;91.23
17521;BME280;8878;-33.370;-70.552;2022-07-29T03:49:51;92285.94;;;7.20;91.86
17521;BME280;8878;-33.370;-70.552;2022-07-29T03:52:22;92298.63;;;7.28;91.90
17521;BME280;8878;-33.370;-70.552;2022-07-29T03:54:51;92293.78;;;7.20;89.83
17521;BME280;8878;-33.370;-70.552;2022-07-29T03:57:24;92268.28;;;7.15;92.12
17521;BME280;8878;-33.370;-70.552;2022-07-29T03:59:54;92265.50;;;7.22;89.11
17521;BME280;8878;-33.370;-70.552;2022-07-29T04:02:26;92279.22;;;7.29;84.97
17521;BME280;8878;-33.370;-70.552;2022-07-29T04:04:55;92268.41;;;7.25;84.82
17521;BME280;8878;-33.370;-70.552;2022-07-29T04:07:25;92261.34;;;7.26;83.79
17521;BME280;8878;-33.370;-70.552;2022-07-29T04:09:54;92272.97;;;7.30;83.12
17521;BME280;8878;-33.370;-70.552;2022-07-29T04:12:23;92264.53;;;7.28;83.10
17521;BME280;8878;-33.370;-70.552;2022-07-29T04:14:53;92251.53;;;7.38;84.68
17521;BME280;8878;-33.370;-70.552;2022-07-29T04:17:22;92255.06;;;7.27;84.24
17521;BME280;8878;-33.370;-70.552;2022-07-29T04:19:53;92263.28;;;7.14;84.85
17521;BME280;8878;-33.370;-70.552;2022-07-29T04:22:22;92246.94;;;7.28;84.25
17521;BME280;8878;-33.370;-70.552;2022-07-29T04:24:52;92241.66;;;7.45;81.95
17521;BME280;8878;-33.370;-70.552;2022-07-29T04:27:21;92253.72;;;7.46;82.84
17521;BME280;8878;-33.370;-70.552;2022-07-29T04:29:51;92253.09;;;7.39;81.21
17521;BME280;8878;-33.370;-70.552;2022-07-29T04:32:21;92244.78;;;7.25;78.36
17521;BME280;8878;-33.370;-70.552;2022-07-29T04:34:52;92262.28;;;7.36;77.40
17521;BME280;8878;-33.370;-70.552;2022-07-29T04:37:21;92254.69;;;7.40;77.69
17521;BME280;8878;-33.370;-70.552;2022-07-29T04:39:50;92241.53;;;7.35;78.33
17521;BME280;8878;-33.370;-70.552;2022-07-29T04:42:20;92246.91;;;7.45;78.80
17521;BME280;8878;-33.370;-70.552;2022-07-29T04:44:49;92256.53;;;7.39;79.80
17521;BME280;8878;-33.370;-70.552;2022-07-29T04:47:18;92243.78;;;7.48;79.10
17521;BME280;8878;-33.370;-70.552;2022-07-29T04:49:48;92242.44;;;7.45;78.96
17521;BME280;8878;-33.370;-70.552;2022-07-29T04:52:19;92235.19;;;7.53;79.17
17521;BME280;8878;-33.370;-70.552;2022-07-29T04:54:48;92233.47;;;7.63;79.98
17521;BME280;8878;-33.370;-70.552;2022-07-29T04:57:17;92230.44;;;7.76;82.08
17521;BME280;8878;-33.370;-70.552;2022-07-29T04:59:47;92239.56;;;7.69;81.76
17521;BME280;8878;-33.370;-70.552;2022-07-29T05:02:16;92218.88;;;7.51;82.41
17521;BME280;8878;-33.370;-70.552;2022-07-29T05:04:45;92212.47;;;7.41;84.25
17521;BME280;8878;-33.370;-70.552;2022-07-29T05:07:15;92211.06;;;7.56;85.24
17521;BME280;8878;-33.370;-70.552;2022-07-29T05:09:46;92201.16;;;7.63;85.24
17521;BME280;8878;-33.370;-70.552;2022-07-29T05:12:15;92208.06;;;7.47;84.08
17521;BME280;8878;-33.370;-70.552;2022-07-29T05:14:45;92210.88;;;7.19;82.15
17521;BME280;8878;-33.370;-70.552;2022-07-29T05:17:14;92212.50;;;7.46;70.88
17521;BME280;8878;-33.370;-70.552;2022-07-29T05:19:44;92205.72;;;7.72;75.19
17521;BME280;8878;-33.370;-70.552;2022-07-29T05:22:13;92197.88;;;7.51;70.00
17521;BME280;8878;-33.370;-70.552;2022-07-29T05:24:43;92189.16;;;7.45;66.64
17521;BME280;8878;-33.370;-70.552;2022-07-29T05:27:14;92198.16;;;7.54;66.10
17521;BME280;8878;-33.370;-70.552;2022-07-29T05:29:43;92207.19;;;7.63;63.63
17521;BME280;8878;-33.370;-70.552;2022-07-29T05:32:13;92196.22;;;7.66;65.34
17521;BME280;8878;-33.370;-70.552;2022-07-29T05:34:42;92200.56;;;7.56;64.05
17521;BME280;8878;-33.370;-70.552;2022-07-29T05:37:11;92198.47;;;7.58;62.60
17521;BME280;8878;-33.370;-70.552;2022-07-29T05:39:41;92186.69;;;7.60;61.46
17521;BME280;8878;-33.370;-70.552;2022-07-29T05:42:12;92175.41;;;7.60;63.74
17521;BME280;8878;-33.370;-70.552;2022-07-29T05:44:41;92167.97;;;7.52;65.31
17521;BME280;8878;-33.370;-70.552;2022-07-29T05:47:11;92166.94;;;7.53;64.38
17521;BME280;8878;-33.370;-70.552;2022-07-29T05:49:40;92158.66;;;7.66;63.96
17521;BME280;8878;-33.370;-70.552;2022-07-29T05:52:09;92167.53;;;7.86;58.18
17521;BME280;8878;-33.370;-70.552;2022-07-29T05:54:39;92161.41;;;8.08;56.47
17521;BME280;8878;-33.370;-70.552;2022-07-29T05:57:16;92153.09;;;8.16;56.75
17521;BME280;8878;-33.370;-70.552;2022-07-29T05:59:46;92154.94;;;8.20;57.40
17521;BME280;8878;-33.370;-70.552;2022-07-29T06:02:16;92150.19;;;8.17;56.85
17521;BME280;8878;-33.370;-70.552;2022-07-29T06:04:45;92136.84;;;8.24;56.46
17521;BME280;8878;-33.370;-70.552;2022-07-29T06:07:15;92143.19;;;8.28;55.16
17521;BME280;8878;-33.370;-70.552;2022-07-29T06:09:44;92142.94;;;8.30;53.31
17521;BME280;8878;-33.370;-70.552;2022-07-29T06:12:14;92139.31;;;8.31;52.80
17521;BME280;8878;-33.370;-70.552;2022-07-29T06:14:45;92141.44;;;8.39;51.75
17521;BME280;8878;-33.370;-70.552;2022-07-29T06:17:15;92143.88;;;8.45;49.85
17521;BME280;8878;-33.370;-70.552;2022-07-29T06:19:45;92142.44;;;8.70;46.46
17521;BME280;8878;-33.370;-70.552;2022-07-29T06:22:15;92138.88;;;8.91;49.45
17521;BME280;8878;-33.370;-70.552;2022-07-29T06:24:45;92140.16;;;8.83;52.86
17521;BME280;8878;-33.370;-70.552;2022-07-29T06:27:14;92157.06;;;8.50;50.90
17521;BME280;8878;-33.370;-70.552;2022-07-29T06:29:45;92149.22;;;8.60;53.72
17521;BME280;8878;-33.370;-70.552;2022-07-29T06:32:15;92137.63;;;8.56;54.62
17521;BME280;8878;-33.370;-70.552;2022-07-29T06:34:44;92126.53;;;8.49;52.04
17521;BME280;8878;-33.370;-70.552;2022-07-29T06:37:13;92132.34;;;8.51;52.81
17521;BME280;8878;-33.370;-70.552;2022-07-29T06:39:43;92118.91;;;8.48;51.41
17521;BME280;8878;-33.370;-70.552;2022-07-29T06:42:12;92115.16;;;8.39;49.11
17521;BME280;8878;-33.370;-70.552;2022-07-29T06:44:41;92109.94;;;8.44;48.44
17521;BME280;8878;-33.370;-70.552;2022-07-29T06:47:13;92115.00;;;8.55;47.24
17521;BME280;8878;-33.370;-70.552;2022-07-29T06:49:42;92114.06;;;8.72;45.50
17521;BME280;8878;-33.370;-70.552;2022-07-29T06:52:11;92113.34;;;8.86;44.95
17521;BME280;8878;-33.370;-70.552;2022-07-29T06:54:41;92111.03;;;8.95;46.08
17521;BME280;8878;-33.370;-70.552;2022-07-29T06:57:14;92100.28;;;9.01;48.15
17521;BME280;8878;-33.370;-70.552;2022-07-29T06:59:44;92103.88;;;8.90;45.73
17521;BME280;8878;-33.370;-70.552;2022-07-29T07:02:15;92089.44;;;8.93;44.02
17521;BME280;8878;-33.370;-70.552;2022-07-29T07:04:44;92072.13;;;9.07;42.38
17521;BME280;8878;-33.370;-70.552;2022-07-29T07:07:13;92069.50;;;9.17;42.66
17521;BME280;8878;-33.370;-70.552;2022-07-29T07:09:43;92064.84;;;9.34;41.59
17521;BME280;8878;-33.370;-70.552;2022-07-29T07:12:12;92056.44;;;9.48;40.03
17521;BME280;8878;-33.370;-70.552;2022-07-29T07:14:42;92055.94;;;9.76;38.56
17521;BME280;8878;-33.370;-70.552;2022-07-29T07:17:13;92063.31;;;10.04;37.25
17521;BME280;8878;-33.370;-70.552;2022-07-29T07:19:42;92055.97;;;10.27;36.33
17521;BME280;8878;-33.370;-70.552;2022-07-29T07:22:12;92046.94;;;10.53;34.10
17521;BME280;8878;-33.370;-70.552;2022-07-29T07:24:41;92047.63;;;10.89;31.80
17521;BME280;8878;-33.370;-70.552;2022-07-29T07:27:10;92043.06;;;11.10;31.51
17521;BME280;8878;-33.370;-70.552;2022-07-29T07:29:40;92053.34;;;11.11;32.33
17521;BME280;8878;-33.370;-70.552;2022-07-29T07:32:09;92035.69;;;11.07;32.62
17521;BME280;8878;-33.370;-70.552;2022-07-29T07:34:41;92034.66;;;11.08;32.29
17521;BME280;8878;-33.370;-70.552;2022-07-29T07:37:11;92038.34;;;11.07;32.42
17521;BME280;8878;-33.370;-70.552;2022-07-29T07:40:00;92044.16;;;11.04;32.46
17521;BME280;8878;-33.370;-70.552;2022-07-29T07:42:30;92044.41;;;11.07;33.57
17521;BME280;8878;-33.370;-70.552;2022-07-29T07:45:00;92040.97;;;11.07;33.70
17521;BME280;8878;-33.370;-70.552;2022-07-29T07:47:29;92037.56;;;10.96;35.28
17521;BME280;8878;-33.370;-70.552;2022-07-29T07:50:00;92037.66;;;10.76;39.55
17521;BME280;8878;-33.370;-70.552;2022-07-29T07:52:29;92043.28;;;10.49;42.10
17521;BME280;8878;-33.370;-70.552;2022-07-29T07:54:59;92046.72;;;10.24;44.77
17521;BME280;8878;-33.370;-70.552;2022-07-29T07:57:28;92043.28;;;9.88;46.50
17521;BME280;8878;-33.370;-70.552;2022-07-29T07:59:58;92035.38;;;9.63;48.45
17521;BME280;8878;-33.370;-70.552;2022-07-29T08:02:28;92031.16;;;9.47;47.72
17521;BME280;8878;-33.370;-70.552;2022-07-29T08:04:59;92040.38;;;9.49;44.46
17521;BME280;8878;-33.370;-70.552;2022-07-29T08:07:28;92035.91;;;9.70;41.40
17521;BME280;8878;-33.370;-70.552;2022-07-29T08:09:58;92043.81;;;9.95;39.66
17521;BME280;8878;-33.370;-70.552;2022-07-29T08:12:27;92038.56;;;10.05;41.62
17521;BME280;8878;-33.370;-70.552;2022-07-29T08:14:56;92042.50;;;9.98;39.98
17521;BME280;8878;-33.370;-70.552;2022-07-29T08:17:26;92033.53;;;10.04;38.44
17521;BME280;8878;-33.370;-70.552;2022-07-29T08:19:55;92033.28;;;10.15;42.79
17521;BME280;8878;-33.370;-70.552;2022-07-29T08:22:27;92035.91;;;10.10;44.48
17521;BME280;8878;-33.370;-70.552;2022-07-29T08:24:56;92029.59;;;9.96;42.54
17521;BME280;8878;-33.370;-70.552;2022-07-29T08:27:26;92038.53;;;9.95;38.63
17521;BME280;8878;-33.370;-70.552;2022-07-29T08:29:57;92037.00;;;10.19;35.43
17521;BME280;8878;-33.370;-70.552;2022-07-29T08:32:27;92025.88;;;10.43;34.14
17521;BME280;8878;-33.370;-70.552;2022-07-29T08:34:56;92020.84;;;10.51;36.38
17521;BME280;8878;-33.370;-70.552;2022-07-29T08:37:27;92011.63;;;10.39;39.75
17521;BME280;8878;-33.370;-70.552;2022-07-29T08:39:56;92008.47;;;10.16;40.98
17521;BME280;8878;-33.370;-70.552;2022-07-29T08:42:26;92007.97;;;10.04;41.50
17521;BME280;8878;-33.370;-70.552;2022-07-29T08:44:57;92004.03;;;10.07;36.64
17521;BME280;8878;-33.370;-70.552;2022-07-29T08:47:28;92008.22;;;10.33;35.65
17521;BME280;8878;-33.370;-70.552;2022-07-29T08:49:59;92008.19;;;10.48;35.83
17521;BME280;8878;-33.370;-70.552;2022-07-29T08:52:33;92002.88;;;10.64;34.68
17521;BME280;8878;-33.370;-70.552;2022-07-29T08:55:05;92002.56;;;10.75;33.72
17521;BME280;8878;-33.370;-70.552;2022-07-29T08:57:37;92007.03;;;10.75;35.94
17521;BME280;8878;-33.370;-70.552;2022-07-29T09:00:08;92014.16;;;10.74;35.10
17521;BME280;8878;-33.370;-70.552;2022-07-29T09:02:41;92007.56;;;10.77;36.57
17521;BME280;8878;-33.370;-70.552;2022-07-29T09:05:12;92003.66;;;10.69;36.25
17521;BME280;8878;-33.370;-70.552;2022-07-29T09:07:44;91997.81;;;10.77;35.50
17521;BME280;8878;-33.370;-70.552;2022-07-29T09:10:14;92005.16;;;10.85;34.48
17521;BME280;8878;-33.370;-70.552;2022-07-29T09:12:44;92004.09;;;10.91;34.13
17521;BME280;8878;-33.370;-70.552;2022-07-29T09:15:13;91999.31;;;10.98;34.30
17521;BME280;8878;-33.370;-70.552;2022-07-29T09:17:45;92002.97;;;11.03;34.50
17521;BME280;8878;-33.370;-70.552;2022-07-29T09:20:18;92008.25;;;11.08;35.27
17521;BME280;8878;-33.370;-70.552;2022-07-29T09:22:50;92001.41;;;10.96;37.36
17521;BME280;8878;-33.370;-70.552;2022-07-29T09:25:33;91994.34;;;10.82;41.08
17521;BME280;8878;-33.370;-70.552;2022-07-29T09:28:09;91993.13;;;10.64;40.33
17521;BME280;8878;-33.370;-70.552;2022-07-29T09:30:50;91996.00;;;10.63;39.18
17521;BME280;8878;-33.370;-70.552;2022-07-29T09:33:20;91996.25;;;10.66;39.84
17521;BME280;8878;-33.370;-70.552;2022-07-29T09:35:59;91994.69;;;10.60;39.35
17521;BME280;8878;-33.370;-70.552;2022-07-29T09:38:30;91999.72;;;10.62;38.07
17521;BME280;8878;-33.370;-70.552;2022-07-29T09:41:01;92005.75;;;10.72;35.99
17521;BME280;8878;-33.370;-70.552;2022-07-29T09:43:30;92007.56;;;10.77;36.16
17521;BME280;8878;-33.370;-70.552;2022-07-29T09:46:10;92000.44;;;10.77;38.06
17521;BME280;8878;-33.370;-70.552;2022-07-29T09:48:40;92003.91;;;10.73;37.69
17521;BME280;8878;-33.370;-70.552;2022-07-29T09:51:18;92011.03;;;10.72;38.36
17521;BME280;8878;-33.370;-70.552;2022-07-29T09:53:49;92008.69;;;10.66;39.69
17521;BME280;8878;-33.370;-70.552;2022-07-29T09:56:19;92009.53;;;10.41;41.85
17521;BME280;8878;-33.370;-70.552;2022-07-29T09:58:49;92008.50;;;10.11;42.46
17521;BME280;8878;-33.370;-70.552;2022-07-29T10:01:33;92007.22;;;9.94;41.98
17521;BME280;8878;-33.370;-70.552;2022-07-29T10:04:04;92013.00;;;9.86;44.31
17521;BME280;8878;-33.370;-70.552;2022-07-29T10:06:33;92020.63;;;9.77;43.11
17521;BME280;8878;-33.370;-70.552;2022-07-29T10:09:11;92007.47;;;9.57;43.93
17521;BME280;8878;-33.370;-70.552;2022-07-29T10:11:40;92014.56;;;9.46;43.17
17521;BME280;8878;-33.370;-70.552;2022-07-29T10:14:09;92018.25;;;9.55;42.64
17521;BME280;8878;-33.370;-70.552;2022-07-29T10:16:39;92015.09;;;9.63;41.38
17521;BME280;8878;-33.370;-70.552;2022-07-29T10:19:08;92002.97;;;9.62;40.39
17521;BME280;8878;-33.370;-70.552;2022-07-29T10:21:38;91994.03;;;9.68;39.72
17521;BME280;8878;-33.370;-70.552;2022-07-29T10:24:12;91995.34;;;9.81;38.39
17521;BME280;8878;-33.370;-70.552;2022-07-29T10:26:42;92001.13;;;9.98;37.10
17521;BME280;8878;-33.370;-70.552;2022-07-29T10:29:12;91998.47;;;10.13;36.25
17521;BME280;8878;-33.370;-70.552;2022-07-29T10:31:48;91991.09;;;10.26;35.97
17521;BME280;8878;-33.370;-70.552;2022-07-29T10:34:26;91992.69;;;10.37;36.02
17521;BME280;8878;-33.370;-70.552;2022-07-29T10:37:06;91987.09;;;10.48;35.96
17521;BME280;8878;-33.370;-70.552;2022-07-29T10:39:47;91986.81;;;10.55;35.67
17521;BME280;8878;-33.370;-70.552;2022-07-29T10:42:22;91987.56;;;10.60;35.86
17521;BME280;8878;-33.370;-70.552;2022-07-29T10:44:53;91986.78;;;10.65;34.96
17521;BME280;8878;-33.370;-70.552;2022-07-29T10:47:23;91985.69;;;10.71;35.70
17521;BME280;8878;-33.370;-70.552;2022-07-29T10:49:57;91982.53;;;10.69;36.01
17521;BME280;8878;-33.370;-70.552;2022-07-29T10:52:53;91980.44;;;10.66;36.05
17521;BME280;8878;-33.370;-70.552;2022-07-29T10:55:37;91979.38;;;10.67;36.04
17521;BME280;8878;-33.370;-70.552;2022-07-29T10:58:14;91975.38;;;10.75;35.49
17521;BME280;8878;-33.370;-70.552;2022-07-29T11:00:44;91977.72;;;10.81;34.70
17521;BME280;8878;-33.370;-70.552;2022-07-29T11:03:45;91982.19;;;10.91;35.22
17521;BME280;8878;-33.370;-70.552;2022-07-29T11:06:15;91983.50;;;10.88;36.25
17521;BME280;8878;-33.370;-70.552;2022-07-29T11:08:45;91982.00;;;10.72;37.09
17521;BME280;8878;-33.370;-70.552;2022-07-29T11:11:39;91971.22;;;10.64;36.60
17521;BME280;8878;-33.370;-70.552;2022-07-29T11:14:12;91975.69;;;10.63;36.33
17521;BME280;8878;-33.370;-70.552;2022-07-29T11:17:02;91980.69;;;10.70;35.08
17521;BME280;8878;-33.370;-70.552;2022-07-29T11:19:33;91983.00;;;10.86;33.98
17521;BME280;8878;-33.370;-70.552;2022-07-29T11:22:03;91967.06;;;11.02;34.17
17521;BME280;8878;-33.370;-70.552;2022-07-29T11:24:36;91967.28;;;11.15;34.23
17521;BME280;8878;-33.370;-70.552;2022-07-29T11:27:15;91974.63;;;11.18;34.25
17521;BME280;8878;-33.370;-70.552;2022-07-29T11:29:53;91970.69;;;11.16;34.39
17521;BME280;8878;-33.370;-70.552;2022-07-29T11:32:24;91977.13;;;10.99;35.55
17521;BME280;8878;-33.370;-70.552;2022-07-29T11:38:27;91977.22;;;10.74;36.70
17521;BME280;8878;-33.370;-70.552;2022-07-29T11:41:21;91977.25;;;10.69;36.10
17521;BME280;8878;-33.370;-70.552;2022-07-29T11:43:53;91971.75;;;10.66;35.92
17521;BME280;8878;-33.370;-70.552;2022-07-29T11:46:43;91978.81;;;10.75;35.36
17521;BME280;8878;-33.370;-70.552;2022-07-29T11:49:13;91980.34;;;10.91;34.70
17521;BME280;8878;-33.370;-70.552;2022-07-29T11:51:51;91972.13;;;10.98;34.85
17521;BME280;8878;-33.370;-70.552;2022-07-29T11:54:25;91976.25;;;11.14;33.69
17521;BME280;8878;-33.370;-70.552;2022-07-29T11:56:55;91982.28;;;11.20;33.04
17521;BME280;8878;-33.370;-70.552;2022-07-29T11:59:27;91977.41;;;11.37;31.74
17521;BME280;8878;-33.370;-70.552;2022-07-29T12:01:58;91985.78;;;11.54;31.04
17521;BME280;8878;-33.370;-70.552;2022-07-29T12:04:28;91983.56;;;11.66;32.09
17521;BME280;8878;-33.370;-70.552;2022-07-29T12:06:58;91982.53;;;11.62;32.73
17521;BME280;8878;-33.370;-70.552;2022-07-29T12:09:27;91978.38;;;11.56;33.59
17521;BME280;8878;-33.370;-70.552;2022-07-29T12:11:59;91987.41;;;11.50;33.49
17521;BME280;8878;-33.370;-70.552;2022-07-29T12:14:31;91992.69;;;11.50;34.77
17521;BME280;8878;-33.370;-70.552;2022-07-29T12:17:00;91987.13;;;11.47;35.06
17521;BME280;8878;-33.370;-70.552;2022-07-29T12:19:42;91986.38;;;11.41;35.98
17521;BME280;8878;-33.370;-70.552;2022-07-29T12:22:12;91992.22;;;11.38;35.90
17521;BME280;8878;-33.370;-70.552;2022-07-29T12:24:44;91994.28;;;11.46;33.93
17521;BME280;8878;-33.370;-70.552;2022-07-29T12:27:17;91994.50;;;11.55;35.04
17521;BME280;8878;-33.370;-70.552;2022-07-29T12:29:55;92004.22;;;11.64;32.92
17521;BME280;8878;-33.370;-70.552;2022-07-29T12:32:32;92012.28;;;11.83;32.71
17521;BME280;8878;-33.370;-70.552;2022-07-29T12:35:07;92002.44;;;11.89;32.92
17521;BME280;8878;-33.370;-70.552;2022-07-29T12:37:38;92010.84;;;11.96;34.58
17521;BME280;8878;-33.370;-70.552;2022-07-29T12:40:08;92006.28;;;12.06;31.67
17521;BME280;8878;-33.370;-70.552;2022-07-29T12:42:38;92011.13;;;12.23;31.83
17521;BME280;8878;-33.370;-70.552;2022-07-29T12:45:10;92015.38;;;12.24;33.94
17521;BME280;8878;-33.370;-70.552;2022-07-29T12:47:52;92020.94;;;12.23;36.26
17521;BME280;8878;-33.370;-70.552;2022-07-29T12:50:21;92010.34;;;12.23;36.88
17521;BME280;8878;-33.370;-70.552;2022-07-29T12:52:50;92012.31;;;12.12;37.67
17521;BME280;8878;-33.370;-70.552;2022-07-29T12:55:41;92002.88;;;12.01;38.43
17521;BME280;8878;-33.370;-70.552;2022-07-29T12:58:11;92004.13;;;12.08;37.47
17521;BME280;8878;-33.370;-70.552;2022-07-29T13:00:42;91999.81;;;12.18;37.20
17521;BME280;8878;-33.370;-70.552;2022-07-29T13:03:11;92003.78;;;12.20;36.88
17521;BME280;8878;-33.370;-70.552;2022-07-29T13:05:43;91999.50;;;12.24;36.42
17521;BME280;8878;-33.370;-70.552;2022-07-29T13:08:13;91993.38;;;12.29;34.88
17521;BME280;8878;-33.370;-70.552;2022-07-29T13:10:43;91987.72;;;12.40;34.75
17521;BME280;8878;-33.370;-70.552;2022-07-29T13:13:14;91988.38;;;12.51;35.88